KCEU/CEU METAR and TAF weather

Enter ICAO airport designator
Station Type Date Time Source
KCEU METAR 2019/02/23 17:54 UTC NOAA

KCEU 231754Z AUTO 08008KT 3SM BR BKN005 OVC011 07/06 A3022 RMK AO2 RAB1659E08 CIG 003V007 SLP235 P0000 60001 T00670061 10072 20067 58013


Station Type Date Time Source
KCEU Decoded METAR 2019/02/23 17:54 UTC NOAA

CLEMSON-OCONEE COUNTY AIRPORT , SC, United States (KCEU) 34-40N 082-53W 268M
Feb 23, 2019 - 12:54 PM EST / 2019.02.23 1754 UTC
Wind: from the E (080 degrees) at 9 MPH (8 KT):0
Visibility: 3 mile(s):0
Sky conditions: overcast
Weather: mist
Precipitation last hour: A trace
Temperature: 44.1 F (6.7 C)
Dew Point: 43.0 F (6.1 C)
Relative Humidity: 95%
Pressure (altimeter): 30.22 in. Hg (1023 hPa)
Pressure tendency: 0.04 inches (1.3 hPa) lower than three hours ago
ob: KCEU 231754Z AUTO 08008KT 3SM BR BKN005 OVC011 07/06 A3022 RMK AO2 RAB1659E08 CIG 003V007 SLP235 P0000 60001 T00670061 10072 20067 58013
cycle: 18

Station Type Date Time Source
KCEU TAF UTC NOAA

Error!


Example: see airport list